Time;durP1;ratioP1;P1;durP2;ratioP2;P2;SDS_P1;SDS_P2;PMS_P1;PMS_P2;Temp;Humidity;BMP_temperature;BMP_pressure;BME280_temperature;BME280_humidity;BME280_pressure;Samples;Min_cycle;Max_cycle;Signal;HPM_P1;HPM_P2
2023/09/09 00:01:38;;;;;;;13.68;6.68;;;;;;;26.24;100.00;101205.19;4987049;28;20137;-54
2023/09/09 00:04:04;;;;;;;11.43;6.10;;;;;;;26.23;100.00;101209.31;4987765;28;20058;-52
2023/09/09 00:06:31;;;;;;;13.00;7.15;;;;;;;26.31;100.00;101204.69;4989995;28;20077;-48
2023/09/09 00:08:58;;;;;;;11.85;6.38;;;;;;;26.33;100.00;101201.31;4988030;28;20054;-53
2023/09/09 00:11:24;;;;;;;11.88;6.47;;;;;;;26.35;100.00;101202.34;4987999;28;20145;-53
2023/09/09 00:13:51;;;;;;;12.38;6.47;;;;;;;26.41;100.00;101202.34;4989222;28;20084;-49
2023/09/09 00:16:18;;;;;;;12.13;6.88;;;;;;;26.41;100.00;101206.00;4989731;28;20050;-49
2023/09/09 00:18:45;;;;;;;11.40;6.30;;;;;;;26.43;100.00;101199.78;4988504;28;20500;-50
2023/09/09 00:21:11;;;;;;;13.82;6.85;;;;;;;26.42;100.00;101199.00;4988287;28;20057;-49
2023/09/09 00:23:38;;;;;;;11.65;6.30;;;;;;;26.43;100.00;101202.63;4985357;28;20285;-50
2023/09/09 00:26:04;;;;;;;12.27;6.43;;;;;;;26.43;100.00;101203.38;4988885;28;20055;-52
2023/09/09 00:28:32;;;;;;;12.38;6.53;;;;;;;26.45;100.00;101200.81;4989038;28;20134;-51
2023/09/09 00:30:59;;;;;;;13.30;6.65;;;;;;;26.43;100.00;101196.94;4989198;28;20101;-51
2023/09/09 00:33:25;;;;;;;13.43;6.53;;;;;;;26.43;100.00;101194.84;4990280;28;20054;-49
2023/09/09 00:35:52;;;;;;;13.80;6.85;;;;;;;26.40;100.00;101189.41;4989974;28;20130;-46
2023/09/09 00:38:18;;;;;;;11.82;6.63;;;;;;;26.37;100.00;101188.38;4986671;28;20092;-49
2023/09/09 00:41:09;;;;;;;12.27;6.68;;;;;;;26.37;100.00;101176.19;4989161;28;20133;-51
2023/09/09 00:43:37;;;;;;;10.07;5.90;;;;;;;26.36;100.00;101175.41;4988902;28;20405;-47
2023/09/09 00:46:07;;;;;;;10.05;5.60;;;;;;;26.30;100.00;101185.25;4988245;28;20065;-50
2023/09/09 00:48:33;;;;;;;10.50;5.65;;;;;;;26.36;100.00;101180.34;4985796;28;20051;-52
2023/09/09 00:51:00;;;;;;;10.88;6.15;;;;;;;26.46;100.00;101179.56;4986862;28;20060;-50
2023/09/09 00:53:27;;;;;;;16.83;6.60;;;;;;;26.47;100.00;101178.28;4988539;28;20054;-50
2023/09/09 00:55:54;;;;;;;11.77;6.70;;;;;;;26.50;100.00;101179.31;4988840;28;20458;-52
2023/09/09 00:58:23;;;;;;;12.02;6.50;;;;;;;26.42;100.00;101178.25;4988368;28;20074;-50
2023/09/09 01:00:49;;;;;;;12.18;6.78;;;;;;;26.45;100.00;101175.16;4987252;28;20077;-49
2023/09/09 01:03:16;;;;;;;11.65;6.18;;;;;;;26.48;100.00;101173.34;4985074;28;20062;-47
2023/09/09 01:05:44;;;;;;;11.38;6.10;;;;;;;26.49;100.00;101169.97;4987758;28;20453;-49
2023/09/09 01:08:10;;;;;;;13.50;6.50;;;;;;;26.44;100.00;101167.91;4987729;28;20587;-51
2023/09/09 01:10:37;;;;;;;12.25;6.47;;;;;;;26.46;100.00;101164.53;4986351;28;20046;-52
2023/09/09 01:13:04;;;;;;;15.48;6.10;;;;;;;26.56;100.00;101172.31;4984993;28;20084;-52
2023/09/09 01:15:31;;;;;;;11.95;6.47;;;;;;;26.54;100.00;101174.13;4987925;28;20074;-51
2023/09/09 01:17:57;;;;;;;11.63;5.97;;;;;;;26.59;100.00;101168.41;4988800;28;20555;-50
2023/09/09 01:20:25;;;;;;;11.05;5.88;;;;;;;26.56;100.00;101166.59;4988639;28;20133;-54
2023/09/09 01:22:53;;;;;;;11.20;6.10;;;;;;;26.60;100.00;101167.13;4987110;28;20141;-53
2023/09/09 01:25:19;;;;;;;11.75;6.30;;;;;;;26.60;100.00;101167.13;4988145;28;20468;-51
2023/09/09 01:27:46;;;;;;;11.52;6.38;;;;;;;26.57;100.00;101168.16;4986724;28;20042;-57
2023/09/09 01:30:12;;;;;;;11.80;6.57;;;;;;;26.53;100.00;101166.88;4981001;28;20046;-52
2023/09/09 01:32:39;;;;;;;11.93;6.57;;;;;;;26.53;100.00;101170.47;4989024;28;20058;-52
2023/09/09 01:35:06;;;;;;;12.80;6.18;;;;;;;26.55;100.00;101172.81;4990834;28;20809;-53
2023/09/09 01:37:33;;;;;;;12.98;6.60;;;;;;;26.51;100.00;101173.09;4997641;28;20065;-52
2023/09/09 01:40:05;;;;;;;11.20;6.00;;;;;;;26.52;100.00;101174.63;4993245;28;20058;-50
2023/09/09 01:42:32;;;;;;;12.82;6.80;;;;;;;26.49;100.00;101167.13;4991769;28;20133;-53
2023/09/09 01:44:59;;;;;;;11.73;6.35;;;;;;;26.46;100.00;101167.38;4988102;28;20419;-55
2023/09/09 01:47:25;;;;;;;10.07;5.65;;;;;;;26.45;100.00;101165.81;4991232;28;20073;-54
2023/09/09 01:49:52;;;;;;;11.60;6.35;;;;;;;26.44;100.00;101167.91;4987990;28;20075;-53
2023/09/09 01:52:18;;;;;;;13.32;7.03;;;;;;;26.48;100.00;101165.56;4989901;28;20050;-54
2023/09/09 01:54:45;;;;;;;13.32;6.97;;;;;;;26.48;100.00;101165.56;4987728;28;20050;-56
2023/09/09 01:57:11;;;;;;;12.68;6.82;;;;;;;26.48;100.00;101170.47;4984330;28;20493;-54
2023/09/09 01:59:38;;;;;;;11.38;6.30;;;;;;;26.46;100.00;101162.44;4987525;28;20532;-54
2023/09/09 02:02:06;;;;;;;10.93;6.43;;;;;;;26.45;100.00;101171.50;4985940;28;20046;-54
2023/09/09 02:04:32;;;;;;;14.45;6.20;;;;;;;26.44;100.00;101165.06;4989898;28;20137;-55
2023/09/09 02:06:59;;;;;;;10.93;5.88;;;;;;;26.42;100.00;101179.03;5000902;28;20364;-52
2023/09/09 02:09:25;;;;;;;9.52;5.60;;;;;;;26.37;100.00;101171.28;4990326;28;20082;-54
2023/09/09 02:11:52;;;;;;;9.70;5.85;;;;;;;26.40;100.00;101160.91;4990536;28;20134;-53
2023/09/09 02:14:18;;;;;;;13.43;6.57;;;;;;;26.39;100.00;101174.38;4989480;28;20046;-52
2023/09/09 02:16:45;;;;;;;13.32;6.15;;;;;;;26.43;100.00;101171.28;5002262;28;20043;-55
2023/09/09 02:19:11;;;;;;;12.77;6.30;;;;;;;26.41;100.00;101171.00;4996634;28;20056;-53
2023/09/09 02:21:38;;;;;;;11.05;6.00;;;;;;;26.39;100.00;101171.50;5005251;28;20519;-53
2023/09/09 02:24:04;;;;;;;12.48;6.25;;;;;;;26.42;100.00;101173.34;4998725;28;20111;-53
2023/09/09 02:26:31;;;;;;;14.00;6.65;;;;;;;26.39;100.00;101162.19;4990049;28;20084;-53
2023/09/09 02:28:57;;;;;;;11.93;6.40;;;;;;;26.36;100.00;101168.94;4990260;28;20100;-52
2023/09/09 02:31:24;;;;;;;11.88;6.28;;;;;;;26.38;100.00;101167.13;4990540;28;20154;-52
2023/09/09 02:33:51;;;;;;;11.65;6.25;;;;;;;26.38;100.00;101167.13;4989211;28;20417;-55
2023/09/09 02:36:17;;;;;;;12.63;6.35;;;;;;;26.33;100.00;101162.16;4989974;28;20468;-52
2023/09/09 02:38:44;;;;;;;12.20;6.50;;;;;;;26.34;100.00;101155.19;4990580;28;20069;-50
2023/09/09 02:41:10;;;;;;;12.20;6.97;;;;;;;26.37;100.00;101165.56;4991183;28;20046;-54
2023/09/09 02:43:37;;;;;;;13.40;6.28;;;;;;;26.38;100.00;101163.47;4989218;28;20046;-52
2023/09/09 02:46:04;;;;;;;11.63;5.97;;;;;;;26.36;100.00;101163.22;4987851;28;20109;-53
2023/09/09 02:48:31;;;;;;;11.98;6.50;;;;;;;26.35;100.00;101162.44;4989808;28;20069;-53
2023/09/09 02:50:57;;;;;;;11.10;6.07;;;;;;;26.33;100.00;101159.31;4991089;28;20152;-52
2023/09/09 02:53:24;;;;;;;9.82;5.95;;;;;;;26.34;100.00;101163.75;4989501;28;20125;-53
2023/09/09 02:55:50;;;;;;;10.73;6.07;;;;;;;26.30;100.00;101154.66;4990070;28;20070;-53
2023/09/09 02:58:17;;;;;;;12.32;6.97;;;;;;;26.25;100.00;101166.84;4989678;28;20140;-53
2023/09/09 03:00:43;;;;;;;10.57;6.07;;;;;;;26.26;100.00;101164.78;4989100;28;20050;-53
2023/09/09 03:03:10;;;;;;;11.52;6.18;;;;;;;26.27;100.00;101169.97;4989542;28;20053;-55
2023/09/09 03:05:37;;;;;;;11.55;6.10;;;;;;;26.25;100.00;101154.66;4990465;28;20043;-55
2023/09/09 03:08:04;;;;;;;12.07;6.60;;;;;;;26.25;100.00;101163.97;4989066;28;20113;-52
2023/09/09 03:10:31;;;;;;;12.85;6.50;;;;;;;26.27;100.00;101161.41;4988863;28;20083;-53
2023/09/09 03:12:58;;;;;;;10.63;6.15;;;;;;;26.24;100.00;101153.09;4994286;28;20432;-52
2023/09/09 03:15:25;;;;;;;13.55;6.60;;;;;;;26.28;100.00;101167.88;4988969;28;20528;-51
2023/09/09 03:17:51;;;;;;;12.10;6.60;;;;;;;26.27;100.00;101167.09;4988546;28;20141;-53
2023/09/09 03:20:18;;;;;;;10.57;6.20;;;;;;;26.27;100.00;101166.31;4990922;28;20065;-53
2023/09/09 03:22:44;;;;;;;11.32;6.28;;;;;;;26.22;100.00;101159.31;4992402;28;20053;-54
2023/09/09 03:25:11;;;;;;;11.27;6.13;;;;;;;26.24;100.00;101165.28;4988932;28;20054;-53
2023/09/09 03:27:37;;;;;;;10.65;6.05;;;;;;;26.18;100.00;101161.66;4988810;28;20153;-53
2023/09/09 03:30:04;;;;;;;13.05;6.85;;;;;;;26.19;100.00;101168.88;4989524;28;20066;-53
2023/09/09 03:32:31;;;;;;;13.10;6.82;;;;;;;26.18;100.00;101166.56;4987815;28;20050;-50
2023/09/09 03:34:58;;;;;;;14.45;6.72;;;;;;;26.23;100.00;101160.84;4989574;28;20057;-53
2023/09/09 03:37:25;;;;;;;12.15;6.63;;;;;;;26.20;100.00;101166.84;4986287;28;20050;-53
2023/09/09 03:39:51;;;;;;;12.18;6.50;;;;;;;26.19;100.00;101163.19;4989132;28;20181;-52
2023/09/09 03:42:18;;;;;;;11.20;6.80;;;;;;;26.22;100.00;101167.06;4990224;28;20077;-54
2023/09/09 03:44:44;;;;;;;12.68;7.00;;;;;;;26.19;100.00;101165.28;4987691;28;20101;-53
2023/09/09 03:47:11;;;;;;;12.18;6.60;;;;;;;26.19;100.00;101165.28;4988291;28;20461;-52
2023/09/09 03:49:37;;;;;;;13.88;7.07;;;;;;;26.20;100.00;101166.84;4988076;28;20046;-52
2023/09/09 03:52:04;;;;;;;11.57;6.32;;;;;;;26.17;100.00;101168.66;4989169;28;20074;-50
2023/09/09 03:54:30;;;;;;;14.82;6.97;;;;;;;26.18;100.00;101170.19;4990526;28;20487;-51
2023/09/09 03:56:57;;;;;;;14.52;6.50;;;;;;;26.17;100.00;101165.78;4988627;28;20094;-52
2023/09/09 03:59:29;;;;;;;13.00;6.70;;;;;;;26.16;100.00;101174.84;4987187;28;20133;-53
2023/09/09 04:01:56;;;;;;;12.18;6.65;;;;;;;26.13;100.00;101179.50;4986184;28;20402;-53
2023/09/09 04:04:23;;;;;;;12.55;7.00;;;;;;;26.13;100.00;101170.94;4988812;28;20057;-53
2023/09/09 04:06:50;;;;;;;12.00;6.15;;;;;;;26.14;100.00;101166.81;4987898;28;20069;-54
2023/09/09 04:09:22;;;;;;;14.13;6.88;;;;;;;26.15;100.00;101167.59;4986845;28;20053;-53
2023/09/09 04:11:49;;;;;;;14.38;6.90;;;;;;;26.15;100.00;101168.38;4989369;28;20058;-53
2023/09/09 04:14:15;;;;;;;12.25;6.60;;;;;;;26.15;100.00;101171.22;4988703;28;20046;-50
2023/09/09 04:16:43;;;;;;;11.50;6.30;;;;;;;26.13;100.00;101159.53;4988691;28;20572;-53
2023/09/09 04:19:10;;;;;;;12.35;6.35;;;;;;;26.13;100.00;101170.19;4988257;28;20057;-53
2023/09/09 04:21:36;;;;;;;12.32;6.45;;;;;;;26.14;100.00;101163.97;4987232;28;20047;-53
2023/09/09 04:24:03;;;;;;;11.52;6.43;;;;;;;26.14;100.00;101161.13;4988527;28;20050;-53
2023/09/09 04:26:30;;;;;;;11.77;6.15;;;;;;;26.13;100.00;101168.09;4987125;28;20046;-54
2023/09/09 04:28:56;;;;;;;11.40;6.68;;;;;;;26.13;100.00;101168.09;4987933;28;20050;-51
2023/09/09 04:31:23;;;;;;;11.18;6.30;;;;;;;26.11;100.00;101162.16;4991636;28;20077;-51
2023/09/09 04:33:49;;;;;;;11.45;6.38;;;;;;;26.13;100.00;101170.94;4987556;28;20061;-54
2023/09/09 04:36:16;;;;;;;12.70;6.75;;;;;;;26.11;100.00;101169.91;4995589;28;20042;-49
2023/09/09 04:38:43;;;;;;;12.95;6.72;;;;;;;26.09;100.00;101172.50;4988608;28;20049;-52
2023/09/09 04:41:09;;;;;;;10.10;5.90;;;;;;;26.09;100.00;101167.56;4992338;28;20058;-52
2023/09/09 04:43:36;;;;;;;12.80;6.40;;;;;;;26.10;100.00;101168.38;4994379;28;20467;-56
2023/09/09 04:46:03;;;;;;;14.82;6.60;;;;;;;26.11;100.00;101178.47;4986835;28;20165;-55
2023/09/09 04:48:29;;;;;;;11.32;6.45;;;;;;;26.09;100.00;101169.66;4985420;28;20050;-54
2023/09/09 04:50:56;;;;;;;12.40;7.00;;;;;;;26.08;100.00;101173.78;4985872;28;20042;-53
2023/09/09 04:53:23;;;;;;;11.02;6.10;;;;;;;26.07;100.00;101172.25;4988750;28;20659;-53
2023/09/09 04:55:49;;;;;;;12.60;6.85;;;;;;;26.09;100.00;101178.22;4987605;28;20117;-53
2023/09/09 04:58:16;;;;;;;13.07;6.55;;;;;;;26.07;100.00;101180.78;4988859;28;20053;-51
2023/09/09 05:00:42;;;;;;;12.65;6.53;;;;;;;26.07;100.00;101184.44;4985892;28;20515;-54
2023/09/09 05:03:09;;;;;;;11.70;6.55;;;;;;;26.08;100.00;101185.97;4983064;28;20042;-51
2023/09/09 05:05:35;;;;;;;12.07;6.20;;;;;;;26.08;100.00;101185.19;4985713;28;20050;-54
2023/09/09 05:08:02;;;;;;;14.65;6.80;;;;;;;26.09;100.00;101193.22;4989187;28;20711;-54
2023/09/09 05:10:29;;;;;;;12.18;6.28;;;;;;;26.05;100.00;101186.22;4988412;28;20073;-52
2023/09/09 05:12:56;;;;;;;10.90;6.65;;;;;;;26.05;100.00;101184.16;4986801;28;20054;-56
2023/09/09 05:15:23;;;;;;;9.95;5.53;;;;;;;26.08;100.00;101188.03;4980079;28;20050;-53
2023/09/09 05:17:49;;;;;;;11.48;6.50;;;;;;;26.02;100.00;101182.31;4992662;28;20133;-53
2023/09/09 05:20:16;;;;;;;13.43;6.40;;;;;;;26.06;100.00;101191.41;4987531;28;20074;-51
2023/09/09 05:22:42;;;;;;;11.55;6.57;;;;;;;26.05;100.00;101192.69;4986667;28;20070;-55
2023/09/09 05:25:09;;;;;;;13.88;6.07;;;;;;;26.03;100.00;101192.44;4988721;28;20069;-53
2023/09/09 05:27:35;;;;;;;12.73;6.30;;;;;;;26.04;100.00;101194.00;4987466;28;20497;-54
2023/09/09 05:30:02;;;;;;;12.02;6.45;;;;;;;26.05;100.00;101197.59;4987717;28;20073;-53
2023/09/09 05:32:29;;;;;;;12.57;6.18;;;;;;;26.03;100.00;101194.50;4987984;28;20400;-52
2023/09/09 05:34:56;;;;;;;12.80;6.78;;;;;;;26.05;100.00;101189.84;4985973;28;20133;-53
2023/09/09 05:37:26;;;;;;;11.77;6.28;;;;;;;26.04;100.00;101194.00;4988912;28;20420;-53
2023/09/09 05:39:52;;;;;;;11.75;6.20;;;;;;;26.03;100.00;101195.28;4991353;28;20125;-52
2023/09/09 05:42:19;;;;;;;11.27;5.75;;;;;;;26.00;100.00;101199.13;4991413;28;20077;-53
2023/09/09 05:44:45;;;;;;;11.13;6.32;;;;;;;26.00;100.00;101193.44;4992566;28;20065;-51
2023/09/09 05:47:12;;;;;;;12.18;5.85;;;;;;;26.02;100.00;101202.25;4992388;28;20046;-50
2023/09/09 05:49:38;;;;;;;10.77;6.35;;;;;;;26.01;100.00;101197.84;4992500;28;20066;-52
2023/09/09 05:52:07;;;;;;;12.30;6.30;;;;;;;26.00;100.00;101195.50;4991521;28;20465;-52
2023/09/09 05:54:33;;;;;;;12.38;5.95;;;;;;;26.00;100.00;101202.00;4991647;28;20046;-54
2023/09/09 05:57:00;;;;;;;11.75;6.60;;;;;;;25.98;100.00;101204.56;4989575;28;20552;-52
2023/09/09 05:59:27;;;;;;;9.30;5.68;;;;;;;25.98;100.00;101207.41;4990783;28;20539;-52
2023/09/09 06:01:54;;;;;;;13.73;6.50;;;;;;;25.99;100.00;101208.19;4990690;28;20057;-53
2023/09/09 06:04:20;;;;;;;12.40;6.47;;;;;;;25.98;100.00;101215.94;4990156;28;20126;-52
2023/09/09 06:06:48;;;;;;;11.35;6.43;;;;;;;25.98;100.00;101218.81;4991093;28;20046;-53
2023/09/09 06:09:15;;;;;;;13.98;6.70;;;;;;;25.97;100.00;101214.41;4990263;28;20058;-51
2023/09/09 06:11:41;;;;;;;11.50;6.15;;;;;;;25.97;100.00;101216.47;4991231;28;20050;-51
2023/09/09 06:14:08;;;;;;;9.88;5.68;;;;;;;25.93;100.00;101222.44;4990287;28;21419;-50
2023/09/09 06:16:35;;;;;;;14.50;6.15;;;;;;;26.04;100.00;101221.69;4990677;28;20090;-52
2023/09/09 06:19:02;;;;;;;14.25;7.57;;;;;;;25.88;100.00;101226.00;4989487;28;20058;-47
2023/09/09 06:21:28;;;;;;;15.13;6.93;;;;;;;25.74;100.00;101226.22;4988725;28;20058;-50
2023/09/09 06:23:55;;;;;;;12.90;6.40;;;;;;;25.65;100.00;101232.91;4990833;28;20606;-48
2023/09/09 06:26:21;;;;;;;10.80;6.38;;;;;;;25.61;100.00;101226.66;4990108;28;20148;-48
2023/09/09 06:28:48;;;;;;;14.85;7.25;;;;;;;25.27;100.00;101226.94;4990465;28;20047;-49
2023/09/09 06:31:14;;;;;;;13.23;6.85;;;;;;;25.41;100.00;101232.47;4987998;28;20057;-51
2023/09/09 06:33:41;;;;;;;13.07;7.30;;;;;;;25.43;100.00;101238.44;4987233;28;20513;-49
2023/09/09 06:36:10;;;;;;;12.48;6.78;;;;;;;25.41;100.00;101234.56;4988353;28;20125;-50
2023/09/09 06:38:37;;;;;;;13.50;7.28;;;;;;;25.28;100.00;101234.97;4988943;28;20042;-50
2023/09/09 06:41:04;;;;;;;15.20;6.85;;;;;;;25.20;100.00;101239.59;4989818;28;20057;-48
2023/09/09 06:43:30;;;;;;;15.57;7.70;;;;;;;25.27;100.00;101236.28;4989212;28;20461;-50
2023/09/09 06:45:59;;;;;;;14.75;7.90;;;;;;;25.20;100.00;101239.59;4987076;28;20461;-51
2023/09/09 06:48:26;;;;;;;16.30;8.07;;;;;;;25.08;100.00;101243.66;4995151;28;20034;-50
2023/09/09 06:50:53;;;;;;;14.45;7.55;;;;;;;25.04;100.00;101243.09;4992150;28;20775;-53
2023/09/09 06:53:19;;;;;;;17.42;8.10;;;;;;;25.07;100.00;101244.16;4989639;28;20069;-51
2023/09/09 06:55:47;;;;;;;14.43;7.47;;;;;;;25.18;100.00;101250.69;4987052;28;20043;-49
2023/09/09 06:58:14;;;;;;;13.35;7.68;;;;;;;25.37;100.00;101248.22;4989198;28;20042;-50
2023/09/09 07:00:41;;;;;;;15.00;8.02;;;;;;;25.43;100.00;101247.00;4983908;28;20042;-48
2023/09/09 07:03:08;;;;;;;15.07;8.10;;;;;;;25.45;100.00;101255.81;4989682;28;20054;-49
2023/09/09 07:05:34;;;;;;;14.77;7.88;;;;;;;25.32;100.00;101248.97;4990080;28;20555;-50
2023/09/09 07:08:01;;;;;;;16.48;8.48;;;;;;;25.50;100.00;101252.22;4986383;28;20101;-47
2023/09/09 07:10:29;;;;;;;15.05;8.27;;;;;;;25.53;100.00;101254.06;4987937;28;20488;-49
2023/09/09 07:12:55;;;;;;;19.13;9.05;;;;;;;25.62;100.00;101253.84;4986641;28;20144;-53
2023/09/09 07:15:22;;;;;;;19.42;8.20;;;;;;;25.51;100.00;101250.94;4988693;28;20452;-49
2023/09/09 07:17:49;;;;;;;18.33;8.95;;;;;;;25.49;100.00;101256.38;4990819;28;20579;-48
2023/09/09 07:20:18;;;;;;;18.50;7.32;;;;;;;25.61;100.00;101258.00;4984276;28;20077;-54
2023/09/09 07:22:45;;;;;;;19.52;8.77;;;;;;;25.62;100.00;101259.53;4988625;28;20144;-52
2023/09/09 07:25:11;;;;;;;17.85;8.50;;;;;;;25.64;100.00;101262.66;4989121;28;20093;-51
2023/09/09 07:27:38;;;;;;;17.27;8.65;;;;;;;25.64;100.00;101256.97;4987101;28;20054;-54
2023/09/09 07:30:05;;;;;;;19.70;8.95;;;;;;;25.63;100.00;101255.44;4988075;28;20504;-52
2023/09/09 07:32:32;;;;;;;22.45;9.77;;;;;;;25.65;100.00;101264.22;4988176;28;20046;-54
2023/09/09 07:35:02;;;;;;;16.70;8.43;;;;;;;25.61;100.00;101263.69;4988540;28;20579;-52
2023/09/09 07:37:29;;;;;;;16.65;8.85;;;;;;;25.67;100.00;101264.50;4988286;28;20961;-52
2023/09/09 07:39:58;;;;;;;16.40;8.38;;;;;;;25.67;100.00;101260.88;4988546;28;20050;-51
2023/09/09 07:42:25;;;;;;;16.63;8.23;;;;;;;25.67;100.00;101258.81;4989638;28;20073;-52
2023/09/09 07:44:53;;;;;;;17.35;8.70;;;;;;;25.71;100.00;101258.56;4988548;28;20054;-54
2023/09/09 07:47:20;;;;;;;17.88;9.85;;;;;;;25.73;100.00;101262.47;4988783;28;20043;-52
2023/09/09 07:49:47;;;;;;;15.85;9.10;;;;;;;25.74;100.00;101257.53;4986621;28;20053;-53
2023/09/09 07:52:14;;;;;;;19.63;9.05;;;;;;;25.73;100.00;101253.94;4989203;28;20171;-52
2023/09/09 07:54:40;;;;;;;19.20;9.15;;;;;;;25.74;100.00;101249.78;4990481;28;20061;-55
2023/09/09 07:57:07;;;;;;;17.83;8.82;;;;;;;25.74;100.00;101251.84;4985294;28;20050;-54
2023/09/09 07:59:33;;;;;;;23.50;10.80;;;;;;;25.74;100.00;101261.16;4987310;28;20073;-51
2023/09/09 08:02:02;;;;;;;17.58;9.20;;;;;;;25.77;100.00;101257.31;4986939;28;20054;-52
2023/09/09 08:04:29;;;;;;;21.60;8.93;;;;;;;25.81;100.00;101255.00;4988004;28;20054;-52
2023/09/09 08:06:56;;;;;;;17.15;9.18;;;;;;;25.82;100.00;101259.38;4988914;28;20058;-54
2023/09/09 08:09:22;;;;;;;15.75;8.32;;;;;;;25.84;100.00;101264.56;4988853;28;20057;-53
2023/09/09 08:11:49;;;;;;;17.80;8.88;;;;;;;25.76;100.00;101261.44;4987387;28;20066;-54
2023/09/09 08:14:18;;;;;;;14.55;8.38;;;;;;;25.81;100.00;101254.19;4988256;28;20085;-52
2023/09/09 08:16:45;;;;;;;17.20;9.00;;;;;;;25.81;100.00;101257.03;4990868;28;20069;-52
2023/09/09 08:19:11;;;;;;;17.35;8.57;;;;;;;25.84;100.00;101265.38;4989923;28;20073;-53
2023/09/09 08:21:38;;;;;;;18.17;8.90;;;;;;;25.84;100.00;101256.03;4988363;28;20093;-53
2023/09/09 08:24:05;;;;;;;19.92;8.65;;;;;;;25.82;100.00;101261.47;4986673;28;20539;-52
2023/09/09 08:26:31;;;;;;;17.33;8.88;;;;;;;25.82;100.00;101256.53;4986254;28;20074;-53
2023/09/09 08:28:58;;;;;;;19.35;9.32;;;;;;;25.78;100.00;101256.00;4988175;28;20145;-53
2023/09/09 08:31:25;;;;;;;14.85;7.65;;;;;;;25.79;100.00;101263.25;4987302;28;20180;-50
2023/09/09 08:33:51;;;;;;;16.70;8.02;;;;;;;25.79;100.00;101263.25;4985468;28;20046;-50
2023/09/09 08:36:18;;;;;;;22.13;9.55;;;;;;;25.84;100.00;101270.28;4991180;28;20092;-53
2023/09/09 08:38:44;;;;;;;19.10;9.90;;;;;;;25.85;100.00;101266.91;4987238;28;20594;-50
2023/09/09 08:41:20;;;;;;;19.17;9.43;;;;;;;25.83;100.00;101269.50;4988091;28;20050;-50
2023/09/09 08:44:22;;;;;;;17.83;8.45;;;;;;;25.84;100.00;101271.06;4985079;28;20476;-49
2023/09/09 08:46:49;;;;;;;23.83;8.50;;;;;;;25.85;100.00;101275.47;4974149;28;20056;-50
2023/09/09 08:49:20;;;;;;;18.88;9.02;;;;;;;25.88;100.00;101267.94;4982699;28;20112;-52
2023/09/09 08:51:53;;;;;;;19.13;8.57;;;;;;;25.85;100.00;101278.31;4988011;28;20468;-50
2023/09/09 08:54:20;;;;;;;19.33;8.52;;;;;;;25.86;100.00;101279.88;4986774;28;20050;-52
2023/09/09 08:56:48;;;;;;;14.93;7.55;;;;;;;25.87;100.00;101274.94;4987635;28;20588;-51
2023/09/09 08:59:15;;;;;;;16.83;8.05;;;;;;;25.87;100.00;101275.75;4987119;28;20042;-52
2023/09/09 09:01:42;;;;;;;17.23;9.27;;;;;;;25.89;100.00;101270.28;4983814;28;20636;-53
2023/09/09 09:04:10;;;;;;;17.60;8.60;;;;;;;25.91;100.00;101269.78;4993599;28;20559;-49
2023/09/09 09:06:38;;;;;;;15.07;7.95;;;;;;;25.93;100.00;101270.84;4987195;28;20073;-52
2023/09/09 09:09:05;;;;;;;17.20;8.48;;;;;;;25.94;100.00;101272.41;4984369;28;20150;-51
2023/09/09 09:11:31;;;;;;;15.45;8.35;;;;;;;25.93;100.00;101270.84;4988403;28;20480;-51
2023/09/09 09:14:08;;;;;;;17.17;7.82;;;;;;;25.94;100.00;101275.25;4991884;28;20144;-50
2023/09/09 09:16:43;;;;;;;16.35;7.65;;;;;;;25.97;100.00;101279.13;4991802;28;20053;-51
2023/09/09 09:19:25;;;;;;;15.35;8.02;;;;;;;25.97;100.00;101273.44;4988504;28;20137;-53
2023/09/09 09:21:52;;;;;;;14.27;7.10;;;;;;;25.97;100.00;101271.38;4979293;28;20078;-50
2023/09/09 09:24:24;;;;;;;14.13;7.47;;;;;;;26.00;100.00;101272.41;4990551;28;20137;-51
2023/09/09 09:26:58;;;;;;;14.93;8.02;;;;;;;25.99;100.00;101270.88;4991216;28;20050;-50
2023/09/09 09:29:37;;;;;;;13.73;7.57;;;;;;;26.02;100.00;101269.84;4991588;28;20469;-53
2023/09/09 09:32:04;;;;;;;17.13;7.63;;;;;;;26.00;100.00;101267.50;4989355;28;20152;-50
2023/09/09 09:34:35;;;;;;;17.45;8.27;;;;;;;25.98;100.00;101275.78;4991752;28;20062;-50
2023/09/09 09:37:15;;;;;;;15.75;7.88;;;;;;;25.99;100.00;101271.63;4996958;28;20468;-52
2023/09/09 09:39:43;;;;;;;14.88;7.50;;;;;;;25.98;100.00;101264.38;4991210;28;20386;-50
2023/09/09 09:42:13;;;;;;;14.98;7.82;;;;;;;25.99;100.00;101274.47;4990263;28;20076;-52
2023/09/09 09:44:40;;;;;;;16.38;7.90;;;;;;;26.00;100.00;101264.66;4990956;28;20420;-51
2023/09/09 09:47:08;;;;;;;14.10;7.82;;;;;;;26.02;100.00;101267.00;4986865;28;20133;-49
2023/09/09 09:49:35;;;;;;;16.60;8.43;;;;;;;26.03;100.00;101263.66;4990341;28;20045;-51
2023/09/09 09:52:02;;;;;;;15.35;7.95;;;;;;;26.06;100.00;101270.41;4991017;28;20136;-53
2023/09/09 09:54:33;;;;;;;16.10;7.85;;;;;;;26.05;100.00;101269.63;4989131;28;20942;-50
2023/09/09 09:57:01;;;;;;;15.73;7.75;;;;;;;26.01;100.00;101260.50;4991062;28;20056;-50
2023/09/09 09:59:33;;;;;;;13.20;7.00;;;;;;;26.03;100.00;101257.97;4994675;28;20065;-53
2023/09/09 10:02:00;;;;;;;17.10;7.85;;;;;;;26.04;100.00;101261.59;4993631;28;20069;-52
2023/09/09 10:04:28;;;;;;;17.25;8.32;;;;;;;26.04;100.00;101250.19;4990274;28;20412;-53
2023/09/09 10:06:58;;;;;;;13.75;7.70;;;;;;;26.05;100.00;101260.28;4989792;28;20054;-51
2023/09/09 10:09:36;;;;;;;15.60;8.27;;;;;;;26.07;100.00;101254.88;4996404;28;20053;-50
2023/09/09 10:12:12;;;;;;;17.08;8.05;;;;;;;26.08;100.00;101245.81;4990820;28;20050;-54
2023/09/09 10:14:41;;;;;;;15.02;7.57;;;;;;;25.94;100.00;101254.53;4979273;28;20051;-53
2023/09/09 10:17:08;;;;;;;13.63;7.20;;;;;;;25.92;100.00;101255.03;4981488;28;20173;-51
2023/09/09 10:19:38;;;;;;;16.63;8.68;;;;;;;25.89;100.00;101256.06;4992492;28;20081;-53
2023/09/09 10:22:06;;;;;;;16.65;8.35;;;;;;;25.91;100.00;101255.53;4987437;28;20054;-54
2023/09/09 10:24:38;;;;;;;13.90;8.10;;;;;;;25.85;100.00;101249.06;4986774;28;20300;-52
2023/09/09 10:27:06;;;;;;;17.55;9.20;;;;;;;25.80;100.00;101246.94;4987051;28;20144;-54
2023/09/09 10:29:37;;;;;;;14.60;8.27;;;;;;;25.80;100.00;101252.66;4988945;28;20133;-53
2023/09/09 10:32:05;;;;;;;16.60;8.90;;;;;;;25.77;100.00;101248.75;4989937;28;20504;-52
2023/09/09 10:34:37;;;;;;;16.70;8.35;;;;;;;25.76;100.00;101252.91;4987912;28;20508;-50
2023/09/09 10:37:06;;;;;;;17.02;7.85;;;;;;;25.75;100.00;101247.72;4990280;28;20077;-52
2023/09/09 10:39:33;;;;;;;18.65;8.50;;;;;;;25.74;100.00;101246.13;4990377;28;20054;-53
2023/09/09 10:42:02;;;;;;;15.88;7.13;;;;;;;25.76;100.00;101247.22;4990599;28;20054;-52
2023/09/09 10:44:29;;;;;;;14.18;7.68;;;;;;;25.81;100.00;101234.25;4991158;28;20134;-51
2023/09/09 10:46:57;;;;;;;15.65;7.63;;;;;;;25.83;100.00;101235.34;4994430;28;20068;-54
2023/09/09 10:49:29;;;;;;;16.35;7.78;;;;;;;25.90;100.00;101242.59;4989618;28;20047;-53
2023/09/09 10:51:56;;;;;;;17.90;7.53;;;;;;;25.90;100.00;101240.53;4987244;28;20086;-52
2023/09/09 10:54:24;;;;;;;14.57;7.50;;;;;;;25.81;100.00;101232.19;4989406;28;20147;-51
2023/09/09 10:56:57;;;;;;;16.10;8.25;;;;;;;25.82;100.00;101236.59;4986346;28;20057;-52
2023/09/09 10:59:27;;;;;;;18.33;7.78;;;;;;;25.79;100.00;101239.72;4988966;28;20401;-51
2023/09/09 11:02:11;;;;;;;16.52;7.97;;;;;;;25.83;100.00;101241.03;4988895;28;20148;-49
2023/09/09 11:04:39;;;;;;;16.25;7.05;;;;;;;25.87;100.00;101240.75;4990699;28;20077;-50
2023/09/09 11:07:15;;;;;;;16.75;7.35;;;;;;;25.94;100.00;101228.88;4989610;28;20090;-53
2023/09/09 11:09:53;;;;;;;11.77;6.93;;;;;;;25.95;100.00;101247.56;4988141;28;20057;-54
2023/09/09 11:12:26;;;;;;;14.77;7.30;;;;;;;25.98;100.00;101235.09;4988254;28;20139;-52